createdAt,value
2018-09-12T00:01:01.427Z,96.35
2018-09-12T00:03:33.592Z,96.31
2018-09-12T00:06:05.706Z,97.12
2018-09-12T00:08:37.744Z,96.98
2018-09-12T00:11:09.827Z,97.92
2018-09-12T00:13:42.975Z,97.40
2018-09-12T00:16:15.011Z,97.37
2018-09-12T00:18:47.140Z,97.86
2018-09-12T00:21:19.236Z,97.93
2018-09-12T00:23:51.303Z,98.66
2018-09-12T00:26:23.375Z,98.57
2018-09-12T00:28:55.484Z,99.62
2018-09-12T00:31:27.560Z,99.40
2018-09-12T00:33:59.721Z,99.07
2018-09-12T00:36:31.769Z,98.36
2018-09-12T00:39:06.599Z,97.78
2018-09-12T00:41:38.691Z,97.09
2018-09-12T00:44:10.771Z,97.09
2018-09-12T00:46:42.816Z,96.69
2018-09-12T00:49:15.025Z,96.86
2018-09-12T00:51:47.068Z,97.41
2018-09-12T00:54:19.103Z,98.15
2018-09-12T00:56:51.195Z,98.51
2018-09-12T00:59:23.227Z,99.38
2018-09-12T01:01:55.403Z,99.63
2018-09-12T01:04:27.408Z,99.89
2018-09-12T01:06:59.443Z,99.96
2018-09-12T01:09:31.647Z,100.00
2018-09-12T01:12:03.724Z,100.00
2018-09-12T01:14:35.829Z,100.00
2018-09-12T01:17:07.950Z,100.00
2018-09-12T01:19:40.041Z,100.00
2018-09-12T01:22:12.189Z,100.00
2018-09-12T01:24:44.227Z,100.00
2018-09-12T01:27:16.303Z,100.00
2018-09-12T01:29:48.317Z,100.00
2018-09-12T01:32:20.415Z,100.00
2018-09-12T01:34:52.436Z,100.00
2018-09-12T01:37:24.580Z,100.00
2018-09-12T01:39:56.667Z,100.00
2018-09-12T01:42:28.750Z,100.00
2018-09-12T01:45:00.886Z,100.00
2018-09-12T01:47:32.948Z,100.00
2018-09-12T01:50:05.007Z,100.00
2018-09-12T01:52:37.063Z,100.00
2018-09-12T01:55:09.256Z,100.00
2018-09-12T01:57:41.285Z,100.00
2018-09-12T02:00:15.443Z,100.00
2018-09-12T02:02:48.155Z,100.00
2018-09-12T02:05:20.247Z,100.00
2018-09-12T02:07:52.285Z,100.00
2018-09-12T02:10:24.332Z,100.00
2018-09-12T02:12:56.594Z,100.00
2018-09-12T02:15:28.961Z,100.00
2018-09-12T02:18:01.003Z,100.00
2018-09-12T02:20:33.069Z,100.00
2018-09-12T02:23:05.123Z,100.00
2018-09-12T02:25:37.219Z,100.00
2018-09-12T02:28:09.266Z,100.00
2018-09-12T02:30:41.366Z,100.00
2018-09-12T02:33:13.404Z,100.00
2018-09-12T02:35:51.174Z,100.00
2018-09-12T02:38:23.211Z,100.00
2018-09-12T02:40:55.431Z,100.00
2018-09-12T02:43:27.492Z,100.00
2018-09-12T02:45:59.547Z,100.00
2018-09-12T02:48:31.600Z,100.00
2018-09-12T02:51:03.693Z,100.00
2018-09-12T02:53:35.751Z,100.00
2018-09-12T02:56:07.755Z,100.00
2018-09-12T02:58:39.816Z,100.00
2018-09-12T03:01:11.859Z,100.00
2018-09-12T03:03:43.971Z,100.00
2018-09-12T03:06:16.058Z,100.00
2018-09-12T03:08:48.091Z,100.00
2018-09-12T03:11:20.157Z,100.00
2018-09-12T03:13:52.183Z,100.00
2018-09-12T03:16:24.215Z,100.00
2018-09-12T03:18:56.365Z,100.00
2018-09-12T03:21:28.450Z,100.00
2018-09-12T03:24:00.599Z,100.00
2018-09-12T03:26:32.682Z,100.00
2018-09-12T03:29:04.780Z,100.00
2018-09-12T03:31:36.862Z,100.00
2018-09-12T03:34:08.912Z,100.00
2018-09-12T03:36:40.968Z,100.00
2018-09-12T03:39:13.043Z,100.00
2018-09-12T03:41:45.052Z,100.00
2018-09-12T03:44:17.150Z,100.00
2018-09-12T03:46:49.223Z,100.00
2018-09-12T03:49:21.313Z,100.00
2018-09-12T03:51:53.374Z,100.00
2018-09-12T03:54:25.464Z,100.00
2018-09-12T03:56:57.530Z,100.00
2018-09-12T03:59:29.613Z,100.00
2018-09-12T04:02:01.709Z,100.00
2018-09-12T04:04:33.727Z,100.00
2018-09-12T04:07:05.760Z,100.00
2018-09-12T04:09:37.857Z,100.00
2018-09-12T04:12:09.895Z,100.00
2018-09-12T04:14:42.005Z,100.00
2018-09-12T04:17:14.063Z,100.00
2018-09-12T04:19:46.176Z,100.00
2018-09-12T04:22:18.232Z,100.00
2018-09-12T04:24:50.326Z,100.00
2018-09-12T04:27:22.477Z,100.00
2018-09-12T04:29:55.133Z,100.00
2018-09-12T04:32:27.159Z,100.00
2018-09-12T04:34:59.227Z,100.00
2018-09-12T04:37:31.291Z,100.00
2018-09-12T04:40:03.400Z,100.00
2018-09-12T04:42:35.563Z,100.00
2018-09-12T04:45:07.579Z,100.00
2018-09-12T04:47:39.702Z,100.00
2018-09-12T04:50:11.793Z,100.00
2018-09-12T04:52:43.804Z,100.00
2018-09-12T04:55:15.901Z,100.00
2018-09-12T04:57:47.939Z,100.00
2018-09-12T05:00:20.012Z,100.00
2018-09-12T05:02:52.029Z,100.00
2018-09-12T05:05:24.877Z,100.00
2018-09-12T05:07:56.929Z,100.00
2018-09-12T05:10:28.994Z,100.00
2018-09-12T05:13:01.059Z,100.00
2018-09-12T05:15:33.147Z,100.00
2018-09-12T05:18:05.212Z,100.00
2018-09-12T05:20:37.267Z,100.00
2018-09-12T05:23:09.361Z,100.00
2018-09-12T05:25:41.407Z,100.00
2018-09-12T05:28:13.514Z,100.00
2018-09-12T05:30:45.528Z,100.00
2018-09-12T05:33:17.700Z,100.00
2018-09-12T05:35:49.836Z,100.00
2018-09-12T05:38:22.016Z,100.00
2018-09-12T05:40:54.120Z,100.00
2018-09-12T05:43:26.247Z,100.00
2018-09-12T05:45:58.374Z,100.00
2018-09-12T05:48:30.445Z,100.00
2018-09-12T05:51:02.509Z,100.00
2018-09-12T05:53:34.618Z,100.00
2018-09-12T05:56:06.751Z,100.00
2018-09-12T05:58:38.805Z,100.00
2018-09-12T06:01:10.934Z,100.00
2018-09-12T06:03:42.983Z,100.00
2018-09-12T06:06:15.102Z,100.00
2018-09-12T06:08:47.144Z,100.00
2018-09-12T06:11:19.236Z,100.00
2018-09-12T06:13:51.287Z,100.00
2018-09-12T06:16:23.332Z,100.00
2018-09-12T06:18:55.610Z,100.00
2018-09-12T06:21:27.759Z,100.00
2018-09-12T06:23:59.895Z,100.00
2018-09-12T06:26:32.079Z,99.85
2018-09-12T06:29:04.159Z,99.68
2018-09-12T06:31:36.293Z,99.90
2018-09-12T06:34:08.357Z,99.21
2018-09-12T06:36:40.427Z,98.72
2018-09-12T06:39:19.066Z,98.49
2018-09-12T06:41:51.134Z,98.15
2018-09-12T06:44:23.189Z,97.35
2018-09-12T06:46:55.192Z,95.86
2018-09-12T06:49:27.322Z,84.39
2018-09-12T06:51:59.409Z,78.76
2018-09-12T06:54:31.564Z,71.12
2018-09-12T06:57:03.668Z,63.92
2018-09-12T06:59:35.695Z,63.75
2018-09-12T07:02:07.775Z,62.26
2018-09-12T07:04:39.887Z,63.01
2018-09-12T07:07:11.938Z,62.86
2018-09-12T07:09:43.971Z,60.55
2018-09-12T07:12:16.079Z,58.24
2018-09-12T07:14:48.179Z,53.62
2018-09-12T07:17:20.266Z,49.65
2018-09-12T07:19:52.339Z,50.71
2018-09-12T07:22:24.390Z,50.79
2018-09-12T07:24:56.439Z,52.46
2018-09-12T07:27:28.563Z,52.37
2018-09-12T07:30:00.694Z,52.58
2018-09-12T07:32:32.764Z,51.84
2018-09-12T07:35:04.912Z,51.32
2018-09-12T07:37:37.393Z,50.32
2018-09-12T07:40:09.553Z,48.40
2018-09-12T07:42:41.692Z,49.90
2018-09-12T07:45:13.782Z,48.48
2018-09-12T07:47:45.850Z,48.74
2018-09-12T07:50:17.856Z,47.89
2018-09-12T07:52:49.987Z,47.64
2018-09-12T07:55:22.153Z,48.39
2018-09-12T07:57:54.118Z,45.94
2018-09-12T08:00:26.154Z,47.34
2018-09-12T08:03:00.171Z,48.98
2018-09-12T08:05:32.316Z,46.72
2018-09-12T08:08:04.531Z,45.88
2018-09-12T08:10:36.609Z,47.19
2018-09-12T08:13:08.616Z,46.90
2018-09-12T08:15:40.711Z,50.49
2018-09-12T08:18:12.743Z,50.37
2018-09-12T08:20:44.863Z,52.07
2018-09-12T08:23:16.892Z,51.47
2018-09-12T08:25:48.925Z,50.67
2018-09-12T08:28:20.975Z,48.79
2018-09-12T08:30:53.070Z,49.15
2018-09-12T08:33:25.306Z,50.06
2018-09-12T08:35:57.209Z,49.34
2018-09-12T08:38:29.342Z,50.47
2018-09-12T08:41:01.380Z,50.28
2018-09-12T08:43:33.491Z,49.22
2018-09-12T08:46:05.729Z,50.90
2018-09-12T08:48:37.788Z,53.21
2018-09-12T08:51:09.816Z,53.38
2018-09-12T08:53:41.870Z,51.82
2018-09-12T08:56:13.972Z,51.84
2018-09-12T08:58:46.018Z,50.12
2018-09-12T09:01:18.135Z,49.79
2018-09-12T09:03:50.220Z,48.07
2018-09-12T09:06:22.262Z,46.84
2018-09-12T09:08:54.556Z,47.37
2018-09-12T09:11:26.575Z,49.46
2018-09-12T09:13:58.647Z,47.39
2018-09-12T09:16:30.695Z,48.54
2018-09-12T09:19:02.839Z,49.09
2018-09-12T09:21:34.931Z,49.24
2018-09-12T09:24:06.990Z,49.70
2018-09-12T09:26:39.028Z,49.92
2018-09-12T09:29:11.082Z,49.70
2018-09-12T09:31:43.146Z,47.16
2018-09-12T09:34:15.190Z,47.80
2018-09-12T09:36:47.224Z,46.84
2018-09-12T09:39:19.240Z,46.18
2018-09-12T09:41:51.259Z,45.78
2018-09-12T09:44:23.263Z,46.12
2018-09-12T09:46:55.331Z,45.21
2018-09-12T09:49:27.361Z,44.43
2018-09-12T09:51:59.379Z,44.61
2018-09-12T09:54:31.447Z,43.43
2018-09-12T09:57:03.478Z,43.63
2018-09-12T09:59:35.736Z,44.81
2018-09-12T10:02:13.505Z,46.95
2018-09-12T10:04:51.239Z,44.35
2018-09-12T10:09:36.876Z,44.54
2018-09-12T10:12:08.916Z,46.02
2018-09-12T10:14:40.927Z,42.75
2018-09-12T10:17:12.987Z,44.14
2018-09-12T10:19:45.064Z,44.26
2018-09-12T10:22:17.120Z,46.30
2018-09-12T10:24:50.253Z,44.28
2018-09-12T10:27:22.305Z,43.10
2018-09-12T10:29:54.403Z,42.70
2018-09-12T10:32:26.449Z,42.69
2018-09-12T10:34:58.473Z,44.77
2018-09-12T10:37:30.596Z,43.47
2018-09-12T10:40:02.769Z,42.47
2018-09-12T10:42:34.815Z,42.63
2018-09-12T10:45:07.164Z,42.02
2018-09-12T10:47:39.207Z,41.99
2018-09-12T10:50:11.207Z,39.64
2018-09-12T10:52:43.309Z,41.24
2018-09-12T10:55:15.300Z,39.41
2018-09-12T10:57:47.293Z,38.86
2018-09-12T11:00:19.320Z,37.69
2018-09-12T11:02:51.361Z,37.98
2018-09-12T11:05:23.458Z,36.33
2018-09-12T11:07:55.584Z,35.68
2018-09-12T11:10:27.649Z,35.73
2018-09-12T11:12:59.755Z,35.38
2018-09-12T11:15:31.831Z,35.57
2018-09-12T11:18:04.044Z,36.63
2018-09-12T11:20:36.116Z,35.86
2018-09-12T11:23:08.179Z,35.32
2018-09-12T11:25:40.271Z,33.87
2018-09-12T11:28:12.410Z,33.64
2018-09-12T11:30:44.497Z,32.48
2018-09-12T11:33:16.590Z,32.83
2018-09-12T11:35:48.639Z,32.87
2018-09-12T11:38:20.707Z,32.60
2018-09-12T11:40:52.800Z,33.41
2018-09-12T11:43:24.895Z,33.79
2018-09-12T11:45:57.027Z,32.68
2018-09-12T11:48:29.413Z,32.74
2018-09-12T11:51:01.512Z,34.09
2018-09-12T11:53:33.682Z,31.90
2018-09-12T11:56:05.788Z,32.61
2018-09-12T11:58:37.876Z,32.16
2018-09-12T12:01:09.944Z,31.79
2018-09-12T12:03:41.961Z,31.22
2018-09-12T12:06:14.080Z,29.54
2018-09-12T12:08:47.138Z,29.54
2018-09-12T12:11:19.180Z,29.84
2018-09-12T12:13:51.223Z,29.43
2018-09-12T12:16:23.258Z,29.37
2018-09-12T12:18:55.302Z,30.10
2018-09-12T12:21:27.944Z,28.56
2018-09-12T12:24:00.241Z,28.83
2018-09-12T12:26:32.256Z,28.14
2018-09-12T12:29:05.197Z,28.32
2018-09-12T12:31:37.298Z,28.79
2018-09-12T12:34:09.402Z,29.56
2018-09-12T12:36:41.468Z,27.88
2018-09-12T12:39:13.627Z,28.86
2018-09-12T12:41:45.665Z,28.43
2018-09-12T12:44:17.747Z,29.52
2018-09-12T12:46:49.774Z,27.62
2018-09-12T12:49:21.849Z,27.54
2018-09-12T12:51:53.956Z,27.72
2018-09-12T12:54:25.982Z,27.83
2018-09-12T12:56:58.032Z,26.35
2018-09-12T12:59:30.292Z,27.55
2018-09-12T13:02:02.350Z,26.68
2018-09-12T13:04:34.396Z,27.59
2018-09-12T13:07:06.436Z,27.11
2018-09-12T13:09:38.497Z,26.46
2018-09-12T13:12:10.592Z,26.26
2018-09-12T13:14:42.739Z,25.00
2018-09-12T13:17:14.694Z,25.30
2018-09-12T13:19:46.781Z,24.69
2018-09-12T13:22:18.785Z,24.50
2018-09-12T13:24:50.835Z,24.91
2018-09-12T13:27:22.894Z,22.05
2018-09-12T13:29:54.924Z,24.29
2018-09-12T13:32:27.298Z,25.72
2018-09-12T13:34:59.383Z,24.99
2018-09-12T13:37:31.424Z,22.92
2018-09-12T13:40:03.514Z,23.05
2018-09-12T13:42:35.660Z,25.31
2018-09-12T13:45:07.759Z,24.92
2018-09-12T13:47:41.322Z,24.98
2018-09-12T13:50:15.409Z,23.48
2018-09-12T13:52:47.468Z,24.34
2018-09-12T13:55:20.744Z,24.47
2018-09-12T13:57:52.804Z,23.92
2018-09-12T14:00:29.231Z,22.92
2018-09-12T14:03:02.487Z,23.61
2018-09-12T14:05:34.532Z,24.90
2018-09-12T14:08:06.568Z,26.44
2018-09-12T14:10:38.617Z,25.75
2018-09-12T14:13:10.685Z,25.42
2018-09-12T14:15:42.860Z,24.38
2018-09-12T14:18:14.909Z,23.70
2018-09-12T14:20:46.992Z,25.41
2018-09-12T14:23:19.033Z,23.56
2018-09-12T14:25:51.105Z,24.80
2018-09-12T14:28:23.172Z,24.01
2018-09-12T14:30:55.210Z,22.76
2018-09-12T14:33:27.272Z,21.65
2018-09-12T14:35:59.320Z,22.33
2018-09-12T14:38:31.474Z,23.16
2018-09-12T14:41:03.581Z,24.50
2018-09-12T14:43:35.605Z,22.13
2018-09-12T14:46:07.709Z,23.97
2018-09-12T14:48:39.737Z,23.97
2018-09-12T14:51:11.869Z,24.39
2018-09-12T14:53:43.936Z,24.10
2018-09-12T14:56:16.020Z,21.88
2018-09-12T14:58:48.066Z,22.14
2018-09-12T15:01:20.119Z,22.27
2018-09-12T15:03:52.191Z,22.77
2018-09-12T15:06:24.258Z,22.62
2018-09-12T15:08:59.878Z,22.65
2018-09-12T15:11:31.932Z,22.20
2018-09-12T15:14:04.073Z,22.64
2018-09-12T15:16:36.125Z,23.94
2018-09-12T15:19:08.171Z,24.96
2018-09-12T15:21:40.226Z,25.92
2018-09-12T15:24:12.299Z,27.88
2018-09-12T15:26:44.325Z,27.84
2018-09-12T15:29:16.366Z,28.56
2018-09-12T15:31:48.518Z,29.62
2018-09-12T15:34:20.548Z,29.55
2018-09-12T15:36:52.593Z,28.29
2018-09-12T15:39:24.630Z,30.64
2018-09-12T15:41:56.708Z,30.38
2018-09-12T15:44:28.763Z,29.96
2018-09-12T15:47:00.851Z,29.55
2018-09-12T15:49:32.852Z,31.85
2018-09-12T15:52:05.215Z,30.94
2018-09-12T15:54:37.696Z,31.28
2018-09-12T15:57:09.905Z,31.10
2018-09-12T15:59:42.036Z,31.29
2018-09-12T16:02:15.188Z,32.35
2018-09-12T16:04:47.340Z,31.71
2018-09-12T16:07:19.497Z,32.97
2018-09-12T16:09:51.633Z,33.16
2018-09-12T16:12:23.697Z,32.80
2018-09-12T16:14:55.815Z,32.17
2018-09-12T16:17:27.961Z,32.66
2018-09-12T16:20:00.001Z,33.03
2018-09-12T16:22:32.043Z,32.43
2018-09-12T16:25:04.136Z,31.92
2018-09-12T16:27:36.811Z,32.39
2018-09-12T16:30:08.828Z,33.72
2018-09-12T16:32:40.952Z,33.83
2018-09-12T16:35:12.970Z,32.96
2018-09-12T16:37:45.026Z,33.16
2018-09-12T16:40:17.101Z,33.84
2018-09-12T16:42:49.435Z,33.39
2018-09-12T16:45:21.606Z,33.67
2018-09-12T16:47:54.873Z,35.44
2018-09-12T16:50:29.035Z,35.13
2018-09-12T16:53:01.291Z,36.63
2018-09-12T16:55:33.725Z,35.39
2018-09-12T16:58:06.883Z,36.27
2018-09-12T17:00:39.697Z,37.07
2018-09-12T17:03:12.263Z,36.74
2018-09-12T17:05:44.491Z,37.10
2018-09-12T17:08:18.964Z,39.00
2018-09-12T17:10:52.186Z,39.43
2018-09-12T17:13:25.690Z,39.40
2018-09-12T17:15:58.466Z,40.33
2018-09-12T17:18:30.660Z,40.77
2018-09-12T17:21:03.109Z,40.56
2018-09-12T17:23:35.849Z,42.48
2018-09-12T17:26:08.983Z,42.93
2018-09-12T17:28:41.888Z,43.21
2018-09-12T17:31:14.223Z,43.02
2018-09-12T17:33:46.617Z,43.62
2018-09-12T17:36:20.214Z,43.50
2018-09-12T17:38:59.936Z,44.39
2018-09-12T17:41:32.105Z,43.80
2018-09-12T17:44:04.172Z,44.26
2018-09-12T17:46:36.187Z,45.41
2018-09-12T17:49:08.273Z,44.86
2018-09-12T17:51:40.345Z,44.88
2018-09-12T17:54:12.431Z,46.05
2018-09-12T17:56:44.519Z,45.58
2018-09-12T17:59:16.516Z,45.51
2018-09-12T18:01:48.551Z,45.45
2018-09-12T18:04:20.664Z,46.40
2018-09-12T18:06:52.699Z,48.26
2018-09-12T18:09:24.746Z,49.79
2018-09-12T18:11:56.744Z,49.02
2018-09-12T18:14:28.773Z,48.65
2018-09-12T18:17:00.765Z,49.38
2018-09-12T18:19:32.769Z,49.60
2018-09-12T18:22:04.829Z,49.31
2018-09-12T18:24:36.891Z,49.99
2018-09-12T18:27:08.951Z,51.29
2018-09-12T18:29:41.063Z,52.06
2018-09-12T18:32:13.103Z,52.49
2018-09-12T18:34:45.214Z,53.13
2018-09-12T18:37:17.269Z,53.27
2018-09-12T18:39:49.339Z,55.16
2018-09-12T18:42:21.443Z,55.12
2018-09-12T18:44:53.516Z,56.58
2018-09-12T18:47:25.809Z,56.30
2018-09-12T18:49:57.941Z,56.53
2018-09-12T18:52:30.161Z,57.84
2018-09-12T18:55:02.263Z,58.60
2018-09-12T18:57:34.409Z,59.26
2018-09-12T19:00:06.567Z,60.10
2018-09-12T19:02:38.711Z,60.03
2018-09-12T19:05:10.863Z,61.15
2018-09-12T19:07:42.954Z,61.90
2018-09-12T19:10:15.023Z,61.62
2018-09-12T19:12:47.150Z,61.85
2018-09-12T19:15:19.476Z,62.85
2018-09-12T19:17:51.635Z,64.48
2018-09-12T19:20:25.651Z,64.64
2018-09-12T19:22:57.786Z,64.95
2018-09-12T19:25:29.844Z,65.33
2018-09-12T19:28:01.907Z,65.53
2018-09-12T19:30:34.010Z,66.31
2018-09-12T19:33:06.073Z,66.75
2018-09-12T19:35:38.111Z,66.98
2018-09-12T19:38:10.203Z,67.49
2018-09-12T19:40:42.281Z,68.17
2018-09-12T19:43:14.336Z,67.10
2018-09-12T19:45:46.351Z,67.29
2018-09-12T19:48:18.363Z,68.22
2018-09-12T19:50:50.391Z,67.02
2018-09-12T19:53:22.517Z,67.10
2018-09-12T19:55:54.559Z,67.87
2018-09-12T19:58:26.629Z,68.22
2018-09-12T20:00:58.709Z,67.90
2018-09-12T20:03:30.773Z,69.34
2018-09-12T20:06:03.056Z,70.09
2018-09-12T20:08:35.143Z,69.75
2018-09-12T20:11:07.199Z,70.15
2018-09-12T20:13:39.272Z,69.88
2018-09-12T20:16:11.544Z,70.40
2018-09-12T20:18:43.483Z,70.99
2018-09-12T20:21:15.506Z,71.67
2018-09-12T20:23:47.693Z,71.85
2018-09-12T20:26:19.643Z,71.46
2018-09-12T20:28:51.683Z,71.67
2018-09-12T20:31:23.708Z,72.33
2018-09-12T20:33:55.755Z,73.36
2018-09-12T20:36:28.672Z,73.94
2018-09-12T20:39:00.742Z,74.24
2018-09-12T20:41:32.763Z,74.65
2018-09-12T20:44:04.800Z,75.20
2018-09-12T20:46:36.832Z,74.94
2018-09-12T20:49:08.915Z,75.16
2018-09-12T20:51:43.519Z,76.06
2018-09-12T20:54:16.262Z,77.22
2018-09-12T20:56:48.252Z,78.02
2018-09-12T20:59:20.304Z,77.21
2018-09-12T21:01:52.296Z,77.28
2018-09-12T21:04:24.330Z,77.67
2018-09-12T21:06:56.334Z,77.41
2018-09-12T21:09:28.374Z,76.96
2018-09-12T21:12:00.405Z,76.98
2018-09-12T21:14:32.487Z,77.65
2018-09-12T21:17:04.547Z,78.20
2018-09-12T21:19:36.582Z,78.23
2018-09-12T21:22:08.600Z,78.37
2018-09-12T21:24:40.623Z,78.55
2018-09-12T21:27:12.709Z,78.95
2018-09-12T21:29:44.735Z,79.23
2018-09-12T21:32:17.467Z,79.81
2018-09-12T21:34:49.483Z,80.48
2018-09-12T21:37:21.522Z,81.18
2018-09-12T21:39:53.544Z,81.36
2018-09-12T21:42:25.550Z,81.77
2018-09-12T21:44:57.575Z,82.86
2018-09-12T21:47:29.583Z,83.31
2018-09-12T21:50:01.687Z,83.67
2018-09-12T21:52:33.710Z,83.89
2018-09-12T21:55:05.773Z,84.46
2018-09-12T21:57:37.805Z,84.70
2018-09-12T22:00:09.932Z,84.99
2018-09-12T22:02:41.973Z,86.38
2018-09-12T22:05:13.982Z,86.79
2018-09-12T22:07:46.100Z,87.69
2018-09-12T22:10:18.128Z,88.73
2018-09-12T22:12:50.152Z,89.16
2018-09-12T22:15:22.197Z,88.50
2018-09-12T22:17:54.226Z,87.56
2018-09-12T22:20:26.237Z,87.06
2018-09-12T22:22:58.287Z,86.51
2018-09-12T22:25:30.355Z,87.50
2018-09-12T22:28:02.399Z,88.52
2018-09-12T22:30:34.404Z,89.48
2018-09-12T22:33:06.427Z,89.64
2018-09-12T22:35:38.432Z,89.47
2018-09-12T22:38:10.479Z,89.64
2018-09-12T22:40:42.535Z,88.52
2018-09-12T22:43:14.580Z,88.74
2018-09-12T22:45:46.567Z,89.31
2018-09-12T22:48:18.592Z,89.56
2018-09-12T22:50:50.696Z,90.56
2018-09-12T22:53:22.763Z,90.33
2018-09-12T22:55:54.856Z,90.45
2018-09-12T22:58:26.901Z,90.33
2018-09-12T23:00:58.911Z,90.76
2018-09-12T23:03:30.944Z,90.88
2018-09-12T23:06:02.983Z,92.12
2018-09-12T23:08:35.023Z,92.91
2018-09-12T23:11:07.044Z,92.54
2018-09-12T23:13:39.079Z,92.84
2018-09-12T23:16:11.099Z,93.59
2018-09-12T23:18:43.107Z,93.82
2018-09-12T23:21:15.128Z,94.33
2018-09-12T23:23:47.135Z,95.07
2018-09-12T23:26:19.174Z,95.37
2018-09-12T23:28:51.171Z,94.41
2018-09-12T23:31:23.226Z,93.63
2018-09-12T23:33:55.322Z,93.89
2018-09-12T23:36:27.358Z,93.41
2018-09-12T23:38:59.379Z,94.26
2018-09-12T23:41:31.400Z,94.88
2018-09-12T23:44:03.444Z,95.18
2018-09-12T23:46:35.460Z,96.42
2018-09-12T23:49:07.986Z,96.46
2018-09-12T23:51:40.011Z,96.99
2018-09-12T23:54:12.015Z,97.58
2018-09-12T23:56:44.083Z,97.68
2018-09-12T23:59:16.099Z,98.05
